Terminal Aerodrome Forecast
Issued by NWS

Home | Current Version | Previous Version | Text Only | Print | Product List | Glossary On
Versions: 1 2 3 4 5 6 7 8 9 10 11 12 13 14 15 16 17 18 19 20 21 22 23 24 25 26 27 28 29 30 31 32 33 34 35 36 37 38 39 40 41 42 43
000
FTUS43 KDMX 230525
TAFOTM
TAF
KOTM 230525Z 2306/2406 18013KT P6SM SCT007 BKN012
     FM231000 18013KT 2SM -RA BR SCT002 OVC005
     FM231200 16011KT 2SM -RA BR BKN003 OVC007
     FM232000 30008KT 4SM BR SCT003 BKN008 OVC010
     FM240400 32014KT 5SM BR SCT008 BKN015=

USA.gov is the U.S. government's official web portal to all federal, state and local government web resources and services.